sensor_id;sensor_type;location;lat;lon;timestamp;P1;durP1;ratioP1;P2;durP2;ratioP2
25637;SDS011;13496;51.040;13.680;2023-09-19T00:03:41;1.40;;;1.30;;
25637;SDS011;13496;51.040;13.680;2023-09-19T00:08:43;2.05;;;1.33;;
25637;SDS011;13496;51.040;13.680;2023-09-19T00:13:47;2.33;;;1.33;;
25637;SDS011;13496;51.040;13.680;2023-09-19T00:18:51;2.25;;;1.10;;
25637;SDS011;13496;51.040;13.680;2023-09-19T00:23:53;1.65;;;1.30;;
25637;SDS011;13496;51.040;13.680;2023-09-19T00:28:56;1.77;;;1.30;;
25637;SDS011;13496;51.040;13.680;2023-09-19T00:33:58;1.33;;;1.15;;
25637;SDS011;13496;51.040;13.680;2023-09-19T00:39:01;1.30;;;1.20;;
25637;SDS011;13496;51.040;13.680;2023-09-19T00:44:04;1.30;;;1.20;;
25637;SDS011;13496;51.040;13.680;2023-09-19T00:49:07;1.73;;;1.30;;
25637;SDS011;13496;51.040;13.680;2023-09-19T00:54:09;1.20;;;1.10;;
25637;SDS011;13496;51.040;13.680;2023-09-19T00:59:11;2.67;;;1.30;;
25637;SDS011;13496;51.040;13.680;2023-09-19T01:04:13;1.38;;;1.27;;
25637;SDS011;13496;51.040;13.680;2023-09-19T01:09:15;1.30;;;1.20;;
25637;SDS011;13496;51.040;13.680;2023-09-19T01:30:32;1.88;;;1.20;;
25637;SDS011;13496;51.040;13.680;2023-09-19T01:35:38;2.20;;;1.20;;
25637;SDS011;13496;51.040;13.680;2023-09-19T01:40:41;1.73;;;1.40;;
25637;SDS011;13496;51.040;13.680;2023-09-19T01:45:56;2.47;;;1.40;;
25637;SDS011;13496;51.040;13.680;2023-09-19T01:51:06;1.70;;;1.30;;
25637;SDS011;13496;51.040;13.680;2023-09-19T01:56:10;2.08;;;1.20;;
25637;SDS011;13496;51.040;13.680;2023-09-19T02:01:22;2.35;;;1.13;;
25637;SDS011;13496;51.040;13.680;2023-09-19T02:06:25;1.33;;;1.30;;
25637;SDS011;13496;51.040;13.680;2023-09-19T02:11:28;1.55;;;1.08;;
25637;SDS011;13496;51.040;13.680;2023-09-19T02:16:29;1.45;;;1.20;;
25637;SDS011;13496;51.040;13.680;2023-09-19T02:21:31;1.23;;;1.13;;
25637;SDS011;13496;51.040;13.680;2023-09-19T02:26:33;1.33;;;1.23;;
25637;SDS011;13496;51.040;13.680;2023-09-19T02:31:37;1.20;;;1.10;;
25637;SDS011;13496;51.040;13.680;2023-09-19T02:36:38;2.42;;;1.45;;
25637;SDS011;13496;51.040;13.680;2023-09-19T02:41:40;0.98;;;0.98;;
25637;SDS011;13496;51.040;13.680;2023-09-19T02:46:42;1.58;;;1.13;;
25637;SDS011;13496;51.040;13.680;2023-09-19T02:51:44;1.20;;;1.10;;
25637;SDS011;13496;51.040;13.680;2023-09-19T02:56:47;2.25;;;1.27;;
25637;SDS011;13496;51.040;13.680;2023-09-19T03:01:48;1.48;;;1.20;;
25637;SDS011;13496;51.040;13.680;2023-09-19T03:06:50;3.17;;;1.42;;
25637;SDS011;13496;51.040;13.680;2023-09-19T03:11:53;1.52;;;1.40;;
25637;SDS011;13496;51.040;13.680;2023-09-19T03:16:56;1.35;;;1.25;;
25637;SDS011;13496;51.040;13.680;2023-09-19T03:21:57;1.20;;;1.10;;
25637;SDS011;13496;51.040;13.680;2023-09-19T03:27:00;1.23;;;1.00;;
25637;SDS011;13496;51.040;13.680;2023-09-19T03:32:02;1.13;;;1.00;;
25637;SDS011;13496;51.040;13.680;2023-09-19T03:37:05;1.20;;;1.10;;
25637;SDS011;13496;51.040;13.680;2023-09-19T03:42:08;1.38;;;1.17;;
25637;SDS011;13496;51.040;13.680;2023-09-19T03:47:11;3.60;;;1.30;;
25637;SDS011;13496;51.040;13.680;2023-09-19T03:52:13;2.33;;;1.10;;
25637;SDS011;13496;51.040;13.680;2023-09-19T03:57:16;3.47;;;1.23;;
25637;SDS011;13496;51.040;13.680;2023-09-19T04:02:22;2.13;;;1.02;;
25637;SDS011;13496;51.040;13.680;2023-09-19T04:07:25;1.20;;;1.10;;
25637;SDS011;13496;51.040;13.680;2023-09-19T04:12:30;1.77;;;1.25;;
25637;SDS011;13496;51.040;13.680;2023-09-19T04:17:31;2.80;;;1.20;;
25637;SDS011;13496;51.040;13.680;2023-09-19T04:22:36;2.20;;;1.05;;
25637;SDS011;13496;51.040;13.680;2023-09-19T04:27:38;2.20;;;1.10;;
25637;SDS011;13496;51.040;13.680;2023-09-19T04:32:40;1.30;;;1.10;;
25637;SDS011;13496;51.040;13.680;2023-09-19T04:37:42;3.30;;;1.38;;
25637;SDS011;13496;51.040;13.680;2023-09-19T04:42:44;3.63;;;1.23;;
25637;SDS011;13496;51.040;13.680;2023-09-19T04:47:45;1.95;;;1.20;;
25637;SDS011;13496;51.040;13.680;2023-09-19T04:52:50;1.52;;;1.20;;
25637;SDS011;13496;51.040;13.680;2023-09-19T04:57:52;4.47;;;1.10;;
25637;SDS011;13496;51.040;13.680;2023-09-19T05:02:55;3.60;;;1.25;;
25637;SDS011;13496;51.040;13.680;2023-09-19T05:08:00;1.60;;;1.13;;
25637;SDS011;13496;51.040;13.680;2023-09-19T05:13:01;1.92;;;1.20;;
25637;SDS011;13496;51.040;13.680;2023-09-19T05:18:03;2.08;;;1.23;;
25637;SDS011;13496;51.040;13.680;2023-09-19T05:23:07;2.20;;;1.23;;
25637;SDS011;13496;51.040;13.680;2023-09-19T05:28:13;2.17;;;1.30;;
25637;SDS011;13496;51.040;13.680;2023-09-19T05:33:16;1.60;;;1.10;;
25637;SDS011;13496;51.040;13.680;2023-09-19T05:38:19;1.30;;;1.20;;
25637;SDS011;13496;51.040;13.680;2023-09-19T05:43:21;1.65;;;1.20;;
25637;SDS011;13496;51.040;13.680;2023-09-19T05:48:23;1.45;;;1.00;;
25637;SDS011;13496;51.040;13.680;2023-09-19T05:53:25;1.75;;;1.65;;
25637;SDS011;13496;51.040;13.680;2023-09-19T05:58:26;2.28;;;1.50;;
25637;SDS011;13496;51.040;13.680;2023-09-19T06:03:28;1.95;;;1.08;;
25637;SDS011;13496;51.040;13.680;2023-09-19T06:08:33;1.42;;;1.27;;
25637;SDS011;13496;51.040;13.680;2023-09-19T06:13:35;1.50;;;1.17;;
25637;SDS011;13496;51.040;13.680;2023-09-19T06:18:37;1.30;;;1.20;;
25637;SDS011;13496;51.040;13.680;2023-09-19T06:23:38;1.80;;;1.20;;
25637;SDS011;13496;51.040;13.680;2023-09-19T06:28:40;1.52;;;1.30;;
25637;SDS011;13496;51.040;13.680;2023-09-19T06:33:42;1.15;;;1.10;;
25637;SDS011;13496;51.040;13.680;2023-09-19T06:38:44;1.60;;;1.30;;
25637;SDS011;13496;51.040;13.680;2023-09-19T06:43:46;1.50;;;1.20;;
25637;SDS011;13496;51.040;13.680;2023-09-19T06:48:47;1.30;;;1.20;;
25637;SDS011;13496;51.040;13.680;2023-09-19T06:53:50;1.35;;;1.13;;
25637;SDS011;13496;51.040;13.680;2023-09-19T06:58:55;1.42;;;1.27;;
25637;SDS011;13496;51.040;13.680;2023-09-19T07:03:57;1.40;;;1.10;;
25637;SDS011;13496;51.040;13.680;2023-09-19T07:08:59;1.25;;;1.02;;
25637;SDS011;13496;51.040;13.680;2023-09-19T07:14:01;1.48;;;1.05;;
25637;SDS011;13496;51.040;13.680;2023-09-19T07:19:05;3.60;;;1.40;;
25637;SDS011;13496;51.040;13.680;2023-09-19T07:24:07;1.33;;;1.20;;
25637;SDS011;13496;51.040;13.680;2023-09-19T07:29:09;1.65;;;1.33;;
25637;SDS011;13496;51.040;13.680;2023-09-19T07:34:11;1.45;;;1.15;;
25637;SDS011;13496;51.040;13.680;2023-09-19T07:39:13;1.30;;;1.20;;
25637;SDS011;13496;51.040;13.680;2023-09-19T07:44:16;1.23;;;1.13;;
25637;SDS011;13496;51.040;13.680;2023-09-19T07:49:18;1.98;;;1.17;;
25637;SDS011;13496;51.040;13.680;2023-09-19T07:54:20;1.33;;;1.23;;
25637;SDS011;13496;51.040;13.680;2023-09-19T07:59:22;1.10;;;1.00;;
25637;SDS011;13496;51.040;13.680;2023-09-19T08:04:24;1.33;;;1.13;;
25637;SDS011;13496;51.040;13.680;2023-09-19T08:09:27;1.13;;;1.00;;
25637;SDS011;13496;51.040;13.680;2023-09-19T08:14:29;1.35;;;1.00;;
25637;SDS011;13496;51.040;13.680;2023-09-19T08:19:31;1.20;;;1.10;;
25637;SDS011;13496;51.040;13.680;2023-09-19T08:24:33;1.30;;;1.00;;
25637;SDS011;13496;51.040;13.680;2023-09-19T08:29:35;1.63;;;1.13;;
25637;SDS011;13496;51.040;13.680;2023-09-19T08:34:37;2.90;;;1.20;;
25637;SDS011;13496;51.040;13.680;2023-09-19T08:39:39;2.65;;;1.20;;
25637;SDS011;13496;51.040;13.680;2023-09-19T08:44:41;1.20;;;1.10;;
25637;SDS011;13496;51.040;13.680;2023-09-19T08:55:15;1.10;;;1.00;;
25637;SDS011;13496;51.040;13.680;2023-09-19T09:00:22;1.33;;;1.20;;
25637;SDS011;13496;51.040;13.680;2023-09-19T09:05:26;1.73;;;1.25;;
25637;SDS011;13496;51.040;13.680;2023-09-19T09:10:29;1.40;;;1.30;;
25637;SDS011;13496;51.040;13.680;2023-09-19T09:15:30;2.25;;;1.40;;
25637;SDS011;13496;51.040;13.680;2023-09-19T09:20:35;1.73;;;1.40;;
25637;SDS011;13496;51.040;13.680;2023-09-19T09:25:53;1.50;;;1.10;;
25637;SDS011;13496;51.040;13.680;2023-09-19T09:30:58;1.52;;;1.42;;
25637;SDS011;13496;51.040;13.680;2023-09-19T09:36:00;3.65;;;2.95;;
25637;SDS011;13496;51.040;13.680;2023-09-19T09:41:04;2.20;;;2.00;;
25637;SDS011;13496;51.040;13.680;2023-09-19T09:46:18;4.95;;;3.83;;
25637;SDS011;13496;51.040;13.680;2023-09-19T09:51:30;4.97;;;3.88;;
25637;SDS011;13496;51.040;13.680;2023-09-19T09:56:32;4.78;;;3.58;;
25637;SDS011;13496;51.040;13.680;2023-09-19T10:01:48;5.28;;;4.13;;
25637;SDS011;13496;51.040;13.680;2023-09-19T10:06:50;3.20;;;2.60;;
25637;SDS011;13496;51.040;13.680;2023-09-19T10:12:29;3.10;;;2.70;;
25637;SDS011;13496;51.040;13.680;2023-09-19T10:17:28;2.83;;;2.25;;
25637;SDS011;13496;51.040;13.680;2023-09-19T10:22:31;2.42;;;2.20;;
25637;SDS011;13496;51.040;13.680;2023-09-19T10:27:36;2.13;;;1.60;;
25637;SDS011;13496;51.040;13.680;2023-09-19T10:32:39;2.50;;;1.60;;
25637;SDS011;13496;51.040;13.680;2023-09-19T10:37:43;3.47;;;1.55;;
25637;SDS011;13496;51.040;13.680;2023-09-19T10:42:51;1.77;;;1.38;;
25637;SDS011;13496;51.040;13.680;2023-09-19T10:47:53;2.42;;;1.40;;
25637;SDS011;13496;51.040;13.680;2023-09-19T10:52:55;1.40;;;1.30;;
25637;SDS011;13496;51.040;13.680;2023-09-19T10:57:59;1.27;;;1.17;;
25637;SDS011;13496;51.040;13.680;2023-09-19T11:08:13;1.27;;;1.17;;
25637;SDS011;13496;51.040;13.680;2023-09-19T11:13:23;1.35;;;1.25;;
25637;SDS011;13496;51.040;13.680;2023-09-19T11:23:42;1.30;;;1.20;;
25637;SDS011;13496;51.040;13.680;2023-09-19T11:28:44;1.30;;;1.20;;
25637;SDS011;13496;51.040;13.680;2023-09-19T11:33:48;1.70;;;1.35;;
25637;SDS011;13496;51.040;13.680;2023-09-19T11:39:28;2.50;;;1.50;;
25637;SDS011;13496;51.040;13.680;2023-09-19T11:49:32;1.20;;;1.10;;
25637;SDS011;13496;51.040;13.680;2023-09-19T11:54:35;1.83;;;1.40;;
25637;SDS011;13496;51.040;13.680;2023-09-19T11:59:41;1.75;;;1.40;;
25637;SDS011;13496;51.040;13.680;2023-09-19T12:04:43;1.58;;;1.48;;
25637;SDS011;13496;51.040;13.680;2023-09-19T12:09:50;2.97;;;1.55;;
25637;SDS011;13496;51.040;13.680;2023-09-19T12:15:03;1.40;;;1.30;;
25637;SDS011;13496;51.040;13.680;2023-09-19T12:20:06;2.45;;;1.30;;
25637;SDS011;13496;51.040;13.680;2023-09-19T12:25:15;1.23;;;1.13;;
25637;SDS011;13496;51.040;13.680;2023-09-19T12:30:19;1.90;;;1.23;;
25637;SDS011;13496;51.040;13.680;2023-09-19T12:35:41;1.67;;;1.30;;
25637;SDS011;13496;51.040;13.680;2023-09-19T12:40:47;1.23;;;1.13;;
25637;SDS011;13496;51.040;13.680;2023-09-19T12:45:52;1.63;;;1.40;;
25637;SDS011;13496;51.040;13.680;2023-09-19T12:56:11;1.30;;;1.20;;
25637;SDS011;13496;51.040;13.680;2023-09-19T13:01:16;1.20;;;1.10;;
25637;SDS011;13496;51.040;13.680;2023-09-19T13:06:34;1.63;;;1.40;;
25637;SDS011;13496;51.040;13.680;2023-09-19T13:11:45;1.10;;;1.05;;
25637;SDS011;13496;51.040;13.680;2023-09-19T13:16:56;1.30;;;1.13;;
25637;SDS011;13496;51.040;13.680;2023-09-19T13:22:35;2.47;;;1.13;;
25637;SDS011;13496;51.040;13.680;2023-09-19T13:27:44;1.35;;;1.20;;
25637;SDS011;13496;51.040;13.680;2023-09-19T13:32:46;3.08;;;1.20;;
25637;SDS011;13496;51.040;13.680;2023-09-19T13:37:48;1.30;;;1.20;;
25637;SDS011;13496;51.040;13.680;2023-09-19T13:42:52;2.05;;;1.40;;
25637;SDS011;13496;51.040;13.680;2023-09-19T13:47:55;1.30;;;1.20;;
25637;SDS011;13496;51.040;13.680;2023-09-19T13:52:56;1.60;;;1.30;;
25637;SDS011;13496;51.040;13.680;2023-09-19T13:57:59;1.55;;;1.17;;
25637;SDS011;13496;51.040;13.680;2023-09-19T14:03:01;2.15;;;1.50;;
25637;SDS011;13496;51.040;13.680;2023-09-19T14:08:03;2.40;;;1.40;;
25637;SDS011;13496;51.040;13.680;2023-09-19T14:13:05;1.73;;;1.38;;
25637;SDS011;13496;51.040;13.680;2023-09-19T14:18:07;1.75;;;1.10;;
25637;SDS011;13496;51.040;13.680;2023-09-19T14:23:10;4.60;;;1.50;;
25637;SDS011;13496;51.040;13.680;2023-09-19T14:28:11;2.80;;;1.30;;
25637;SDS011;13496;51.040;13.680;2023-09-19T14:33:13;2.28;;;1.30;;
25637;SDS011;13496;51.040;13.680;2023-09-19T14:38:16;3.53;;;1.40;;
25637;SDS011;13496;51.040;13.680;2023-09-19T14:43:18;5.38;;;1.83;;
25637;SDS011;13496;51.040;13.680;2023-09-19T14:48:20;5.28;;;1.60;;
25637;SDS011;13496;51.040;13.680;2023-09-19T14:53:26;4.10;;;1.42;;
25637;SDS011;13496;51.040;13.680;2023-09-19T14:58:29;2.30;;;1.42;;
25637;SDS011;13496;51.040;13.680;2023-09-19T15:03:32;2.70;;;1.70;;
25637;SDS011;13496;51.040;13.680;2023-09-19T15:08:34;2.05;;;1.50;;
25637;SDS011;13496;51.040;13.680;2023-09-19T15:13:39;2.85;;;1.30;;
25637;SDS011;13496;51.040;13.680;2023-09-19T15:18:44;1.50;;;1.40;;
25637;SDS011;13496;51.040;13.680;2023-09-19T15:23:48;3.42;;;1.60;;
25637;SDS011;13496;51.040;13.680;2023-09-19T15:28:50;1.58;;;1.45;;
25637;SDS011;13496;51.040;13.680;2023-09-19T15:33:52;2.28;;;1.60;;
25637;SDS011;13496;51.040;13.680;2023-09-19T15:39:01;1.50;;;1.40;;
25637;SDS011;13496;51.040;13.680;2023-09-19T15:44:11;1.95;;;1.73;;
25637;SDS011;13496;51.040;13.680;2023-09-19T15:49:14;3.67;;;1.73;;
25637;SDS011;13496;51.040;13.680;2023-09-19T15:54:16;2.70;;;1.50;;
25637;SDS011;13496;51.040;13.680;2023-09-19T15:59:19;2.72;;;1.90;;
25637;SDS011;13496;51.040;13.680;2023-09-19T16:04:20;2.05;;;1.55;;
25637;SDS011;13496;51.040;13.680;2023-09-19T16:09:22;4.70;;;2.17;;
25637;SDS011;13496;51.040;13.680;2023-09-19T16:14:24;2.75;;;1.90;;
25637;SDS011;13496;51.040;13.680;2023-09-19T16:19:30;4.18;;;2.15;;
25637;SDS011;13496;51.040;13.680;2023-09-19T16:24:32;11.50;;;2.92;;
25637;SDS011;13496;51.040;13.680;2023-09-19T16:29:35;46.17;;;7.50;;
25637;SDS011;13496;51.040;13.680;2023-09-19T16:34:37;15.98;;;3.50;;
25637;SDS011;13496;51.040;13.680;2023-09-19T16:39:42;6.00;;;2.78;;
25637;SDS011;13496;51.040;13.680;2023-09-19T16:44:44;12.80;;;2.40;;
25637;SDS011;13496;51.040;13.680;2023-09-19T16:49:46;39.95;;;7.38;;
25637;SDS011;13496;51.040;13.680;2023-09-19T16:54:48;4.38;;;2.28;;
25637;SDS011;13496;51.040;13.680;2023-09-19T16:59:50;8.03;;;2.93;;
25637;SDS011;13496;51.040;13.680;2023-09-19T17:04:52;9.45;;;2.63;;
25637;SDS011;13496;51.040;13.680;2023-09-19T17:09:55;14.07;;;3.70;;
25637;SDS011;13496;51.040;13.680;2023-09-19T17:14:57;29.05;;;4.35;;
25637;SDS011;13496;51.040;13.680;2023-09-19T17:19:58;7.63;;;3.15;;
25637;SDS011;13496;51.040;13.680;2023-09-19T17:25:00;10.30;;;3.20;;
25637;SDS011;13496;51.040;13.680;2023-09-19T17:30:03;58.33;;;12.07;;
25637;SDS011;13496;51.040;13.680;2023-09-19T17:35:06;28.40;;;5.73;;
25637;SDS011;13496;51.040;13.680;2023-09-19T17:40:10;11.35;;;3.30;;
25637;SDS011;13496;51.040;13.680;2023-09-19T17:45:12;7.10;;;3.08;;
25637;SDS011;13496;51.040;13.680;2023-09-19T17:50:17;9.85;;;3.20;;
25637;SDS011;13496;51.040;13.680;2023-09-19T17:55:19;5.93;;;2.80;;
25637;SDS011;13496;51.040;13.680;2023-09-19T18:00:20;11.75;;;4.40;;
25637;SDS011;13496;51.040;13.680;2023-09-19T18:05:23;13.43;;;4.00;;
25637;SDS011;13496;51.040;13.680;2023-09-19T18:10:25;8.32;;;3.38;;
25637;SDS011;13496;51.040;13.680;2023-09-19T18:15:27;8.48;;;2.97;;
25637;SDS011;13496;51.040;13.680;2023-09-19T18:20:36;7.28;;;3.85;;
25637;SDS011;13496;51.040;13.680;2023-09-19T18:25:39;8.18;;;3.67;;
25637;SDS011;13496;51.040;13.680;2023-09-19T18:30:41;7.05;;;3.45;;
25637;SDS011;13496;51.040;13.680;2023-09-19T18:35:43;8.85;;;4.05;;
25637;SDS011;13496;51.040;13.680;2023-09-19T18:40:45;4.20;;;3.13;;
25637;SDS011;13496;51.040;13.680;2023-09-19T18:45:56;4.20;;;3.30;;
25637;SDS011;13496;51.040;13.680;2023-09-19T18:51:03;3.53;;;2.92;;
25637;SDS011;13496;51.040;13.680;2023-09-19T18:56:08;4.60;;;3.35;;
25637;SDS011;13496;51.040;13.680;2023-09-19T19:01:13;4.30;;;2.92;;
25637;SDS011;13496;51.040;13.680;2023-09-19T19:06:17;3.70;;;3.30;;
25637;SDS011;13496;51.040;13.680;2023-09-19T19:11:23;3.45;;;3.03;;
25637;SDS011;13496;51.040;13.680;2023-09-19T19:16:27;5.53;;;2.92;;
25637;SDS011;13496;51.040;13.680;2023-09-19T19:21:29;4.65;;;3.75;;
25637;SDS011;13496;51.040;13.680;2023-09-19T19:26:32;4.65;;;3.20;;
25637;SDS011;13496;51.040;13.680;2023-09-19T19:31:34;3.88;;;3.25;;
25637;SDS011;13496;51.040;13.680;2023-09-19T19:36:38;3.15;;;2.85;;
25637;SDS011;13496;51.040;13.680;2023-09-19T19:41:40;3.42;;;3.00;;
25637;SDS011;13496;51.040;13.680;2023-09-19T19:46:45;3.47;;;2.95;;
25637;SDS011;13496;51.040;13.680;2023-09-19T19:51:47;4.95;;;3.10;;
25637;SDS011;13496;51.040;13.680;2023-09-19T19:56:51;4.50;;;3.20;;
25637;SDS011;13496;51.040;13.680;2023-09-19T20:01:53;5.53;;;3.00;;
25637;SDS011;13496;51.040;13.680;2023-09-19T20:06:55;4.90;;;2.95;;
25637;SDS011;13496;51.040;13.680;2023-09-19T20:11:57;6.57;;;3.20;;
25637;SDS011;13496;51.040;13.680;2023-09-19T20:16:59;3.70;;;2.88;;
25637;SDS011;13496;51.040;13.680;2023-09-19T20:22:01;4.72;;;3.08;;
25637;SDS011;13496;51.040;13.680;2023-09-19T20:27:08;5.53;;;3.38;;
25637;SDS011;13496;51.040;13.680;2023-09-19T20:32:10;3.75;;;2.88;;
25637;SDS011;13496;51.040;13.680;2023-09-19T20:37:12;3.58;;;2.80;;
25637;SDS011;13496;51.040;13.680;2023-09-19T20:42:16;2.80;;;2.60;;
25637;SDS011;13496;51.040;13.680;2023-09-19T20:47:18;4.68;;;3.05;;
25637;SDS011;13496;51.040;13.680;2023-09-19T20:52:20;3.38;;;2.65;;
25637;SDS011;13496;51.040;13.680;2023-09-19T20:57:22;3.80;;;2.50;;
25637;SDS011;13496;51.040;13.680;2023-09-19T21:02:24;3.08;;;2.72;;
25637;SDS011;13496;51.040;13.680;2023-09-19T21:07:26;2.58;;;2.38;;
25637;SDS011;13496;51.040;13.680;2023-09-19T21:12:31;3.45;;;2.60;;
25637;SDS011;13496;51.040;13.680;2023-09-19T21:17:34;3.15;;;2.30;;
25637;SDS011;13496;51.040;13.680;2023-09-19T21:22:43;3.00;;;2.47;;
25637;SDS011;13496;51.040;13.680;2023-09-19T21:27:45;6.53;;;2.75;;
25637;SDS011;13496;51.040;13.680;2023-09-19T21:32:48;4.32;;;2.42;;
25637;SDS011;13496;51.040;13.680;2023-09-19T21:37:49;2.78;;;2.17;;
25637;SDS011;13496;51.040;13.680;2023-09-19T21:42:51;4.00;;;2.42;;
25637;SDS011;13496;51.040;13.680;2023-09-19T21:47:53;4.40;;;2.47;;
25637;SDS011;13496;51.040;13.680;2023-09-19T21:52:55;3.28;;;2.15;;
25637;SDS011;13496;51.040;13.680;2023-09-19T21:57:57;3.28;;;2.38;;
25637;SDS011;13496;51.040;13.680;2023-09-19T22:02:58;5.93;;;2.80;;
25637;SDS011;13496;51.040;13.680;2023-09-19T22:08:01;4.50;;;2.75;;
25637;SDS011;13496;51.040;13.680;2023-09-19T22:13:05;2.47;;;2.28;;
25637;SDS011;13496;51.040;13.680;2023-09-19T22:18:09;2.90;;;2.13;;
25637;SDS011;13496;51.040;13.680;2023-09-19T22:23:14;2.60;;;2.20;;
25637;SDS011;13496;51.040;13.680;2023-09-19T22:28:16;3.60;;;2.60;;
25637;SDS011;13496;51.040;13.680;2023-09-19T22:33:18;3.83;;;2.40;;
25637;SDS011;13496;51.040;13.680;2023-09-19T22:38:20;2.80;;;2.20;;
25637;SDS011;13496;51.040;13.680;2023-09-19T22:43:23;2.93;;;2.20;;
25637;SDS011;13496;51.040;13.680;2023-09-19T22:48:33;3.20;;;2.20;;
25637;SDS011;13496;51.040;13.680;2023-09-19T22:53:35;2.63;;;2.30;;
25637;SDS011;13496;51.040;13.680;2023-09-19T22:58:46;2.40;;;2.20;;
25637;SDS011;13496;51.040;13.680;2023-09-19T23:03:48;2.27;;;2.07;;
25637;SDS011;13496;51.040;13.680;2023-09-19T23:09:06;3.20;;;2.13;;
25637;SDS011;13496;51.040;13.680;2023-09-19T23:14:17;3.77;;;1.97;;
25637;SDS011;13496;51.040;13.680;2023-09-19T23:19:19;3.53;;;2.00;;
25637;SDS011;13496;51.040;13.680;2023-09-19T23:24:30;2.30;;;1.83;;
25637;SDS011;13496;51.040;13.680;2023-09-19T23:29:34;4.90;;;2.30;;
25637;SDS011;13496;51.040;13.680;2023-09-19T23:34:39;4.10;;;2.05;;
25637;SDS011;13496;51.040;13.680;2023-09-19T23:39:42;3.30;;;2.17;;
25637;SDS011;13496;51.040;13.680;2023-09-19T23:44:44;2.50;;;2.03;;
25637;SDS011;13496;51.040;13.680;2023-09-19T23:49:49;2.37;;;1.97;;
25637;SDS011;13496;51.040;13.680;2023-09-19T23:54:51;3.27;;;1.93;;
